Time;durP1;ratioP1;P1;durP2;ratioP2;P2;SDS_P1;SDS_P2;PMS_P1;PMS_P2;Temp;Humidity;BMP_temperature;BMP_pressure;BME280_temperature;BME280_humidity;BME280_pressure;Samples;Min_cycle;Max_cycle;Signal;HPM_P1;HPM_P2
2022/09/17 00:01:06;;;;;;;31.30;21.60;;;;;;;21.65;66.96;100061.13;6182817;23;20030;-74
2022/09/17 00:03:34;;;;;;;22.02;17.50;;;;;;;21.78;67.18;100082.56;6213680;23;20027;-75
2022/09/17 00:06:06;;;;;;;21.15;16.60;;;;;;;21.76;66.84;100076.41;6214167;23;20028;-74
2022/09/17 00:08:35;;;;;;;17.73;15.68;;;;;;;21.68;66.91;100064.06;6213577;23;20492;-74
2022/09/17 00:11:16;;;;;;;19.83;15.32;;;;;;;21.56;67.07;100052.78;6214245;23;20091;-75
2022/09/17 00:13:43;;;;;;;24.02;16.58;;;;;;;21.66;67.41;100079.81;6210956;23;20020;-74
2022/09/17 00:16:11;;;;;;;20.95;17.52;;;;;;;21.53;67.22;100062.84;6212624;23;20574;-75
2022/09/17 00:18:40;;;;;;;17.52;15.55;;;;;;;21.50;67.82;100069.28;6211168;23;20379;-75
2022/09/17 00:21:16;;;;;;;17.65;15.52;;;;;;;21.34;67.54;100051.41;6212736;23;20039;-77
2022/09/17 00:23:43;;;;;;;19.65;15.48;;;;;;;21.42;67.80;100061.75;6211639;23;20027;-78
2022/09/17 00:26:11;;;;;;;18.63;15.23;;;;;;;21.44;67.86;100072.75;6212361;23;20494;-78
2022/09/17 00:28:37;;;;;;;17.13;14.75;;;;;;;21.36;67.84;100065.22;6212506;23;20027;-78
2022/09/17 00:31:08;;;;;;;19.75;15.32;;;;;;;21.41;67.75;100062.94;6187282;23;20027;-76
2022/09/17 00:33:35;;;;;;;17.38;15.48;;;;;;;21.39;68.00;100073.84;6212697;23;20020;-75
2022/09/17 00:36:04;;;;;;;19.35;15.68;;;;;;;21.41;67.93;100067.81;6213331;23;20383;-76
2022/09/17 00:38:32;;;;;;;20.30;15.23;;;;;;;21.34;67.98;100062.75;6213069;23;20460;-76
2022/09/17 00:40:59;;;;;;;21.60;17.02;;;;;;;21.22;68.07;100040.91;6219450;23;20027;-76
2022/09/17 00:43:46;;;;;;;18.67;15.18;;;;;;;20.90;67.99;99994.63;6230499;23;20025;-75
2022/09/17 00:46:34;;;;;;;18.08;13.95;;;;;;;21.13;67.74;100034.59;6228308;23;20025;-73
2022/09/17 00:49:06;;;;;;;17.65;15.85;;;;;;;21.30;68.26;100061.81;6235480;23;20044;-74
2022/09/17 00:51:40;;;;;;;24.75;14.05;;;;;;;21.17;67.93;100034.69;6217192;23;20021;-74
2022/09/17 00:54:09;;;;;;;20.35;15.05;;;;;;;21.27;67.81;100056.88;6213607;23;20020;-74
2022/09/17 00:56:39;;;;;;;23.45;14.77;;;;;;;21.21;67.99;100053.47;6212674;23;20460;-73
2022/09/17 00:59:07;;;;;;;18.17;16.25;;;;;;;21.23;68.17;100059.63;6211332;23;20024;-74
2022/09/17 01:01:35;;;;;;;20.50;16.20;;;;;;;21.22;68.37;100054.28;6212895;23;20348;-73
2022/09/17 01:04:02;;;;;;;17.92;15.98;;;;;;;21.16;68.06;100044.38;6213909;23;20390;-74
2022/09/17 01:06:43;;;;;;;24.30;17.95;;;;;;;21.20;67.90;100057.50;6213223;23;20035;-74
2022/09/17 01:09:13;;;;;;;20.60;15.70;;;;;;;21.22;67.98;100051.44;6212894;23;20057;-74
2022/09/17 01:12:34;;;;;;;19.40;14.63;;;;;;;21.15;68.03;100051.25;6214310;23;20025;-76
2022/09/17 01:15:01;;;;;;;19.85;14.63;;;;;;;21.26;67.90;100050.38;6091540;23;20067;-75
2022/09/17 01:17:45;;;;;;;22.45;15.57;;;;;;;21.23;68.13;100044.56;6205501;23;20245;-75
2022/09/17 01:20:40;;;;;;;21.63;16.02;;;;;;;21.20;67.98;100042.47;6212768;23;20028;-76
2022/09/17 01:23:07;;;;;;;24.77;16.35;;;;;;;21.24;67.74;100046.25;6187372;23;20079;-77
2022/09/17 01:26:05;;;;;;;21.50;15.82;;;;;;;21.19;67.52;100027.44;6216038;23;20028;-75
2022/09/17 01:29:02;;;;;;;22.55;15.65;;;;;;;21.17;67.53;100031.84;6215711;23;20021;-76
2022/09/17 01:31:40;;;;;;;21.42;16.48;;;;;;;21.01;67.78;100009.94;6214283;23;20024;-75
2022/09/17 01:34:42;;;;;;;21.25;15.52;;;;;;;21.14;67.66;100038.25;6214409;23;20048;-75
2022/09/17 01:37:16;;;;;;;18.23;14.88;;;;;;;21.09;67.79;100056.34;6163932;23;20032;-75
2022/09/17 01:39:51;;;;;;;21.08;16.25;;;;;;;20.91;67.99;100016.13;6215742;23;20021;-75
2022/09/17 01:42:32;;;;;;;20.13;15.88;;;;;;;20.98;67.58;100024.84;6214368;23;20024;-74
2022/09/17 01:45:08;;;;;;;17.95;15.13;;;;;;;20.98;67.72;100026.88;6215750;23;20021;-74
2022/09/17 01:47:47;;;;;;;21.70;15.55;;;;;;;21.05;67.63;100044.91;6214628;23;20021;-75
2022/09/17 01:50:20;;;;;;;21.23;15.18;;;;;;;20.92;67.85;100014.97;6214453;23;20029;-73
2022/09/17 01:52:51;;;;;;;20.52;16.60;;;;;;;20.87;67.94;100011.56;6215243;23;20108;-75
2022/09/17 01:55:21;;;;;;;21.25;16.00;;;;;;;20.87;68.20;100015.22;6214230;23;20040;-74
2022/09/17 01:58:11;;;;;;;18.55;15.82;;;;;;;20.86;67.96;100024.94;6189149;23;20032;-75
2022/09/17 02:00:42;;;;;;;20.33;17.27;;;;;;;20.93;68.18;100030.81;6213768;23;20708;-75
2022/09/17 02:03:11;;;;;;;26.77;16.35;;;;;;;20.91;68.03;100027.50;6214776;23;20021;-75
2022/09/17 02:05:58;;;;;;;31.37;17.70;;;;;;;20.76;68.32;100022.63;6214648;23;20024;-76
2022/09/17 02:08:34;;;;;;;35.13;20.95;;;;;;;20.83;68.16;100022.81;6216111;23;20292;-75
2022/09/17 02:11:08;;;;;;;41.95;21.58;;;;;;;20.96;68.20;100040.63;6215587;23;20020;-73
2022/09/17 02:13:54;;;;;;;38.70;21.92;;;;;;;20.97;68.10;100037.41;6189906;23;20021;-74
2022/09/17 02:16:27;;;;;;;35.17;22.33;;;;;;;20.97;68.31;100034.56;6212509;23;20025;-74
2022/09/17 02:19:01;;;;;;;41.65;24.33;;;;;;;21.01;68.16;100035.47;6215466;23;20032;-73
2022/09/17 02:21:46;;;;;;;47.40;25.65;;;;;;;21.03;68.16;100043.66;6215893;23;20024;-75
2022/09/17 02:24:28;;;;;;;38.03;22.75;;;;;;;21.08;68.45;100034.03;6215432;23;20032;-73
2022/09/17 02:26:58;;;;;;;38.13;22.65;;;;;;;21.07;68.45;100019.00;6188709;23;20020;-74
2022/09/17 02:29:32;;;;;;;35.97;21.95;;;;;;;20.96;68.41;100012.22;6214010;23;20027;-74
2022/09/17 02:32:00;;;;;;;34.70;22.25;;;;;;;21.09;68.35;100032.81;6213737;23;20035;-75
2022/09/17 02:34:28;;;;;;;40.80;23.35;;;;;;;21.09;68.52;100030.81;6215005;23;20023;-74
2022/09/17 02:36:58;;;;;;;41.05;21.67;;;;;;;21.03;68.63;100013.25;6212880;23;20492;-75
2022/09/17 02:39:25;;;;;;;;;;;;;;;20.96;68.63;100024.41;6214494;23;20031;-76
2022/09/17 02:41:52;;;;;;;30.85;19.50;;;;;;;21.13;68.39;100028.06;6214673;23;19920;-75
2022/09/17 02:44:44;;;;;;;43.38;23.02;;;;;;;21.10;68.32;100025.97;6215521;23;20234;-75
2022/09/17 02:47:32;;;;;;;30.40;20.38;;;;;;;21.09;68.69;100030.00;6211876;23;20459;-75
2022/09/17 02:50:41;;;;;;;35.97;22.15;;;;;;;21.04;68.58;100016.91;6213590;23;20024;-74
2022/09/17 02:53:37;;;;;;;37.05;20.25;;;;;;;21.06;68.57;100015.34;6092197;23;20382;-75
2022/09/17 02:56:12;;;;;;;41.20;21.98;;;;;;;21.13;69.01;100028.06;6092492;23;20042;-75
2022/09/17 02:59:08;;;;;;;33.10;21.13;;;;;;;21.13;68.99;100017.56;6184204;23;20028;-74
2022/09/17 03:01:43;;;;;;;33.00;21.80;;;;;;;21.13;69.06;100016.72;6213474;23;20025;-74
2022/09/17 03:04:14;;;;;;;40.60;22.23;;;;;;;21.04;69.17;99997.84;6214541;23;20024;-73
2022/09/17 03:06:46;;;;;;;34.13;22.88;;;;;;;20.99;68.89;100000.97;6214351;23;20072;-73
2022/09/17 03:09:15;;;;;;;29.23;19.88;;;;;;;21.11;69.19;100002.06;6214265;23;20024;-73
2022/09/17 03:11:42;;;;;;;42.45;22.60;;;;;;;21.10;69.51;100004.09;6213816;23;20027;-72
2022/09/17 03:14:09;;;;;;;31.50;21.20;;;;;;;21.06;69.20;100006.84;6214467;23;20136;-75
2022/09/17 03:16:36;;;;;;;29.48;20.08;;;;;;;21.04;69.31;100000.69;6213414;23;20024;-74
2022/09/17 03:19:03;;;;;;;36.30;20.02;;;;;;;21.10;69.42;100000.44;6212853;23;20032;-74
2022/09/17 03:21:30;;;;;;;31.08;19.05;;;;;;;21.19;69.26;100015.25;6213671;23;20028;-74
2022/09/17 03:23:59;;;;;;;26.73;19.17;;;;;;;21.18;69.15;100028.63;6212360;23;20017;-75
2022/09/17 03:26:26;;;;;;;28.15;17.30;;;;;;;21.09;69.15;99993.91;6214305;23;20021;-75
2022/09/17 03:28:53;;;;;;;29.25;17.27;;;;;;;21.08;69.51;99999.97;6213890;23;20027;-76
2022/09/17 03:31:20;;;;;;;23.00;16.63;;;;;;;21.10;69.36;100000.44;6212938;23;20028;-75
2022/09/17 03:33:47;;;;;;;20.42;16.00;;;;;;;21.02;69.73;100005.88;6188081;23;20039;-74
2022/09/17 03:36:14;;;;;;;29.50;17.98;;;;;;;21.05;69.67;100001.50;6187796;23;20025;-75
2022/09/17 03:38:41;;;;;;;24.80;18.58;;;;;;;21.18;69.40;100013.63;6213468;23;20042;-75
2022/09/17 03:41:07;;;;;;;24.35;20.33;;;;;;;21.06;69.05;99994.66;6214588;23;20025;-74
2022/09/17 03:43:34;;;;;;;28.23;18.85;;;;;;;21.04;69.23;99997.84;6213384;23;20024;-75
2022/09/17 03:46:02;;;;;;;24.23;17.35;;;;;;;21.07;69.40;100001.97;6213478;23;20345;-75
2022/09/17 03:48:29;;;;;;;23.60;16.42;;;;;;;21.09;69.47;100010.13;6213191;23;20025;-75
2022/09/17 03:50:56;;;;;;;20.55;16.13;;;;;;;20.91;69.51;99987.75;6213535;23;20024;-76
2022/09/17 03:53:23;;;;;;;30.75;17.73;;;;;;;20.97;69.01;99980.63;6213307;23;20020;-76
2022/09/17 03:55:49;;;;;;;24.75;17.48;;;;;;;20.98;69.36;99987.13;6187549;23;20031;-76
2022/09/17 03:58:16;;;;;;;24.52;17.60;;;;;;;20.92;69.17;99977.22;6212660;23;20024;-78
2022/09/17 04:00:43;;;;;;;25.40;17.27;;;;;;;20.96;69.07;99987.50;6212700;23;20031;-76
2022/09/17 04:03:10;;;;;;;26.58;19.35;;;;;;;20.99;69.10;99988.75;6214155;23;20028;-75
2022/09/17 04:05:37;;;;;;;33.15;18.38;;;;;;;20.90;69.26;99977.59;6213774;23;20487;-73
2022/09/17 04:08:04;;;;;;;34.75;19.02;;;;;;;20.99;68.99;99991.59;6213458;23;20043;-73
2022/09/17 04:10:30;;;;;;;26.88;18.67;;;;;;;20.80;69.04;99969.63;6186339;23;20024;-73
2022/09/17 04:12:57;;;;;;;30.00;18.67;;;;;;;20.73;68.98;99972.28;6212322;23;20020;-72
2022/09/17 04:15:24;;;;;;;29.42;18.17;;;;;;;20.69;69.27;99962.84;6184256;23;20047;-72
2022/09/17 04:17:56;;;;;;;32.42;19.75;;;;;;;20.39;68.94;99897.97;6212014;23;20028;-72
2022/09/17 04:20:25;;;;;;;25.38;18.48;;;;;;;20.79;69.20;99963.13;6213797;23;20036;-74
2022/09/17 04:22:52;;;;;;;23.23;17.15;;;;;;;20.77;68.99;99974.00;6213232;23;20021;-72
2022/09/17 04:25:19;;;;;;;27.33;17.75;;;;;;;20.64;69.00;99968.75;6212384;23;20463;-72
2022/09/17 04:27:46;;;;;;;25.98;19.10;;;;;;;20.65;68.88;99956.22;6212039;23;20024;-73
2022/09/17 04:30:16;;;;;;;26.35;20.08;;;;;;;20.54;68.97;99944.56;6212517;23;20090;-74
2022/09/17 04:32:44;;;;;;;22.47;17.20;;;;;;;20.51;69.19;99942.47;6187227;23;20024;-73
2022/09/17 04:35:12;;;;;;;24.33;16.92;;;;;;;20.56;69.00;99965.72;6212691;23;20021;-74
2022/09/17 04:37:40;;;;;;;26.70;18.60;;;;;;;20.49;69.02;99953.34;6213055;23;20021;-73
2022/09/17 04:40:07;;;;;;;23.17;16.83;;;;;;;20.53;68.97;99949.44;6214250;23;20029;-73
2022/09/17 04:42:34;;;;;;;24.42;17.52;;;;;;;20.57;68.97;99970.22;6214039;23;20036;-73
2022/09/17 04:45:01;;;;;;;24.42;17.00;;;;;;;20.52;68.84;99964.81;6214385;23;20032;-72
2022/09/17 04:47:28;;;;;;;20.33;16.20;;;;;;;20.49;69.03;99965.50;6213684;23;20352;-72
2022/09/17 04:49:55;;;;;;;24.70;17.42;;;;;;;20.53;68.95;99966.44;6212842;23;20025;-77
2022/09/17 04:52:22;;;;;;;22.77;17.63;;;;;;;20.42;68.71;99947.47;6213275;23;20024;-76
2022/09/17 04:54:54;;;;;;;23.60;17.00;;;;;;;20.54;68.56;99972.94;6213253;23;20071;-79
2022/09/17 04:57:22;;;;;;;21.23;17.88;;;;;;;20.44;68.50;99959.25;6212616;23;20062;-77
2022/09/17 04:59:49;;;;;;;26.42;16.30;;;;;;;20.34;68.87;99949.25;6211807;23;20021;-77
2022/09/17 05:02:16;;;;;;;21.05;16.30;;;;;;;20.45;68.73;99973.09;6213001;23;20028;-78
2022/09/17 05:04:43;;;;;;;18.88;15.20;;;;;;;20.39;68.88;99974.53;6214256;23;20024;-77
2022/09/17 05:07:10;;;;;;;26.27;16.02;;;;;;;20.39;68.93;99974.53;6212691;23;20395;-77
2022/09/17 05:09:39;;;;;;;23.98;16.08;;;;;;;20.39;69.37;99983.03;6213555;23;20317;-76
2022/09/17 05:12:06;;;;;;;24.83;16.08;;;;;;;20.38;68.82;99981.41;6212507;23;20021;-74
2022/09/17 05:14:33;;;;;;;23.15;16.83;;;;;;;20.36;69.15;99978.91;6212808;23;20016;-73
2022/09/17 05:17:00;;;;;;;21.85;17.08;;;;;;;20.21;68.95;99953.34;6185904;23;20032;-73
2022/09/17 05:19:26;;;;;;;23.15;16.95;;;;;;;20.24;68.90;99964.78;6212932;23;20025;-76
2022/09/17 05:21:53;;;;;;;22.10;17.33;;;;;;;20.37;69.24;99979.72;6213627;23;20020;-77
2022/09/17 05:24:20;;;;;;;20.88;16.50;;;;;;;20.21;69.39;99965.50;6186808;23;20060;-76
2022/09/17 05:26:47;;;;;;;19.65;16.05;;;;;;;20.20;69.07;99963.84;6213656;23;20024;-75
2022/09/17 05:29:14;;;;;;;20.55;15.90;;;;;;;20.06;69.07;99943.56;6212702;23;20028;-80
2022/09/17 05:31:40;;;;;;;23.23;16.27;;;;;;;20.12;69.01;99953.47;6212668;23;20035;-75
2022/09/17 05:34:08;;;;;;;27.33;16.27;;;;;;;20.25;69.21;99972.09;6212876;23;20051;-75
2022/09/17 05:36:34;;;;;;;24.70;17.75;;;;;;;20.18;68.96;99971.88;6213817;23;20456;-76
2022/09/17 05:39:01;;;;;;;21.08;15.07;;;;;;;20.25;68.84;99976.94;6213722;23;20032;-77
2022/09/17 05:41:28;;;;;;;24.67;15.77;;;;;;;20.26;68.72;99979.41;6213094;23;20020;-75
2022/09/17 05:43:55;;;;;;;21.83;15.77;;;;;;;20.16;68.59;99956.41;6212225;23;20017;-76
2022/09/17 05:46:22;;;;;;;22.42;17.00;;;;;;;20.23;68.63;99965.94;6186624;23;20025;-75
2022/09/17 05:48:49;;;;;;;20.58;15.77;;;;;;;20.20;68.86;99975.16;6212424;23;20020;-75
2022/09/17 05:51:17;;;;;;;19.52;15.35;;;;;;;20.12;69.09;99968.47;6212731;23;20029;-74
2022/09/17 05:53:44;;;;;;;16.65;14.93;;;;;;;20.07;68.90;99960.22;6211980;23;20024;-75
2022/09/17 05:56:11;;;;;;;21.30;15.65;;;;;;;20.02;68.97;99960.47;6212320;23;20024;-75
2022/09/17 05:58:38;;;;;;;18.90;15.65;;;;;;;20.11;69.12;99980.19;6211522;23;20032;-75
2022/09/17 06:01:05;;;;;;;21.33;17.30;;;;;;;19.85;68.88;99927.56;6211744;23;20031;-76
2022/09/17 06:03:32;;;;;;;19.02;16.00;;;;;;;19.98;69.47;99953.88;6213410;23;20025;-76
2022/09/17 06:05:59;;;;;;;21.27;16.52;;;;;;;19.96;69.15;99935.56;6212267;23;20016;-78
2022/09/17 06:08:27;;;;;;;20.45;16.42;;;;;;;20.21;69.42;99970.34;6213177;23;20024;-77
2022/09/17 06:10:54;;;;;;;25.65;18.23;;;;;;;20.17;69.33;99960.91;6212740;23;20477;-77
2022/09/17 06:13:27;;;;;;;20.70;16.48;;;;;;;20.31;69.70;99972.69;6188894;23;20567;-77
2022/09/17 06:15:54;;;;;;;19.58;16.35;;;;;;;20.31;69.52;99976.34;6190765;23;20028;-76
2022/09/17 06:18:21;;;;;;;22.13;17.05;;;;;;;20.22;69.64;99957.81;6233462;23;20020;-76
2022/09/17 06:21:02;;;;;;;20.50;16.77;;;;;;;20.30;69.51;99974.66;6236567;23;20024;-77
2022/09/17 06:23:36;;;;;;;24.75;17.25;;;;;;;20.34;69.58;99981.28;6232947;23;20168;-75
2022/09/17 06:26:04;;;;;;;25.20;16.52;;;;;;;20.35;69.50;99982.13;6234692;23;20020;-76
2022/09/17 06:28:31;;;;;;;19.52;16.48;;;;;;;20.37;69.51;99991.06;6219832;23;20024;-77
2022/09/17 06:31:03;;;;;;;25.83;18.15;;;;;;;20.36;69.63;99983.75;6215806;23;20090;-76
2022/09/17 06:33:31;;;;;;;22.45;17.73;;;;;;;20.34;69.49;99977.59;6215395;23;20024;-77
2022/09/17 06:36:00;;;;;;;22.65;18.42;;;;;;;20.26;69.89;99962.41;6215889;23;20055;-77
2022/09/17 06:38:28;;;;;;;24.50;18.30;;;;;;;20.48;69.90;99982.91;6212229;23;20024;-77
2022/09/17 06:40:55;;;;;;;25.85;19.40;;;;;;;20.52;69.69;99981.81;6214716;23;20028;-76
2022/09/17 06:43:23;;;;;;;23.17;18.65;;;;;;;20.54;69.84;99970.09;6188542;23;20031;-75
2022/09/17 06:45:53;;;;;;;20.15;16.70;;;;;;;20.70;69.66;99988.00;6188476;23;20020;-77
2022/09/17 06:48:21;;;;;;;22.63;20.30;;;;;;;20.71;69.75;99983.16;6214177;23;20036;-78
2022/09/17 06:50:53;;;;;;;15.18;13.63;;;;;;;20.74;69.82;99988.09;6188441;23;20025;-82
2022/09/17 06:53:23;;;;;;;26.73;17.25;;;;;;;20.75;69.50;99967.03;6213957;23;20028;-78
2022/09/17 06:55:50;;;;;;;39.17;26.10;;;;;;;21.03;69.77;99996.22;6212058;23;20024;-77
2022/09/17 06:58:17;;;;;;;34.83;23.90;;;;;;;21.12;69.63;99998.03;6211476;23;20025;-75
2022/09/17 07:00:43;;;;;;;19.90;15.80;;;;;;;21.06;69.26;99978.44;6210228;23;20020;-73
2022/09/17 07:03:11;;;;;;;13.82;12.65;;;;;;;21.01;68.77;99941.81;6208410;23;20079;-75
2022/09/17 07:05:37;;;;;;;12.02;10.85;;;;;;;21.34;67.51;99965.34;6209565;23;20021;-76
2022/09/17 07:08:04;;;;;;;10.95;10.02;;;;;;;21.57;65.78;99972.00;6208839;23;20024;-76
2022/09/17 07:10:31;;;;;;;13.10;11.77;;;;;;;21.61;65.27;99966.44;6211146;23;20020;-76
2022/09/17 07:12:58;;;;;;;13.68;11.45;;;;;;;21.74;64.05;99980.16;6211388;23;20460;-75
2022/09/17 07:15:25;;;;;;;11.35;10.35;;;;;;;21.91;63.34;99978.09;6209786;23;20025;-78
2022/09/17 07:17:52;;;;;;;16.45;10.85;;;;;;;22.13;62.58;99999.31;6211570;23;20043;-78
2022/09/17 07:20:19;;;;;;;11.15;10.15;;;;;;;22.16;61.82;99975.84;6184499;23;20345;-76
2022/09/17 07:22:54;;;;;;;14.20;13.02;;;;;;;22.39;60.45;99976.75;6211024;23;20355;-76
2022/09/17 07:25:21;;;;;;;19.38;10.07;;;;;;;22.55;60.08;99985.19;6209285;23;20028;-76
2022/09/17 07:27:47;;;;;;;17.42;10.15;;;;;;;22.80;59.69;100002.75;6213010;23;20025;-77
2022/09/17 07:30:14;;;;;;;12.18;11.05;;;;;;;22.90;58.98;99982.22;6212814;23;20020;-76
2022/09/17 07:32:41;;;;;;;19.30;12.95;;;;;;;23.21;58.66;99999.47;6213427;23;20028;-75
2022/09/17 07:35:08;;;;;;;26.50;10.40;;;;;;;23.42;57.62;100012.09;6185430;23;20017;-76
2022/09/17 07:37:35;;;;;;;24.55;12.10;;;;;;;23.49;56.89;99987.78;6211579;23;20052;-77
2022/09/17 07:40:05;;;;;;;12.63;10.68;;;;;;;23.66;56.59;99992.94;6212357;23;20027;-77
2022/09/17 07:42:32;;;;;;;32.00;11.93;;;;;;;23.91;56.21;100015.34;6210865;23;20032;-76
2022/09/17 07:44:59;;;;;;;10.00;9.20;;;;;;;23.87;54.49;99987.59;6184246;23;20095;-76
2022/09/17 07:47:27;;;;;;;21.10;10.85;;;;;;;24.02;53.87;99982.09;6211451;23;20024;-77
2022/09/17 07:49:54;;;;;;;10.68;9.68;;;;;;;24.20;52.66;100008.00;6209694;23;20358;-76
2022/09/17 07:52:21;;;;;;;15.90;9.65;;;;;;;23.98;51.35;99998.34;6210985;23;20028;-77
2022/09/17 07:54:48;;;;;;;11.75;10.13;;;;;;;24.03;50.98;99980.88;6210924;23;20356;-75
2022/09/17 07:57:15;;;;;;;9.85;8.93;;;;;;;24.38;50.97;100005.41;6210754;23;20021;-76
2022/09/17 07:59:41;;;;;;;10.68;9.63;;;;;;;24.56;50.73;100000.78;6210943;23;20025;-75
2022/09/17 08:02:13;;;;;;;10.15;9.50;;;;;;;24.66;49.78;99985.81;6183629;23;20339;-75
2022/09/17 08:04:42;;;;;;;16.10;9.70;;;;;;;24.66;48.40;99970.72;6210875;23;20080;-79
2022/09/17 08:07:11;;;;;;;11.13;10.23;;;;;;;24.68;47.16;99974.81;6211592;23;20028;-77
2022/09/17 08:09:38;;;;;;;9.73;8.77;;;;;;;24.87;46.90;99999.50;6211990;23;20024;-78
2022/09/17 08:12:05;;;;;;;10.32;9.40;;;;;;;25.21;46.82;100013.78;6184522;23;20031;-78
2022/09/17 08:14:32;;;;;;;10.20;9.32;;;;;;;25.26;46.42;99977.09;6211187;23;20369;-78
2022/09/17 08:16:59;;;;;;;12.95;9.25;;;;;;;25.64;45.74;100017.84;6211540;23;20025;-76
2022/09/17 08:19:28;;;;;;;12.00;9.32;;;;;;;25.70;44.77;100013.38;6210042;23;20025;-79
2022/09/17 08:21:55;;;;;;;11.40;10.27;;;;;;;25.83;45.12;99998.81;6211154;23;20035;-80
2022/09/17 08:24:22;;;;;;;12.30;11.20;;;;;;;26.02;43.93;99983.38;6203823;23;20204;-82
2022/09/17 08:26:49;;;;;;;10.18;8.95;;;;;;;26.55;43.28;100028.69;6179905;23;20031;-79
2022/09/17 08:29:15;;;;;;;11.38;10.38;;;;;;;26.77;43.39;100024.69;6207171;23;20081;-92
2022/09/17 08:31:42;;;;;;;14.50;12.88;;;;;;;26.98;42.64;100006.75;6211300;23;20032;-83
2022/09/17 08:34:09;;;;;;;14.82;10.75;;;;;;;27.34;42.83;100027.72;6201570;23;20024;-80
2022/09/17 08:36:37;;;;;;;10.43;9.50;;;;;;;27.56;41.27;100022.81;6206604;23;20016;-81
2022/09/17 08:42:10;;;;;;;10.38;8.85;;;;;;;26.91;40.00;99966.63;6222237;23;20078;-78
2022/09/17 08:44:41;;;;;;;9.52;8.65;;;;;;;27.07;40.47;100020.66;6211500;23;20032;-83
2022/09/17 08:47:32;;;;;;;14.05;9.75;;;;;;;26.72;40.30;100024.25;6210617;23;20031;-81
2022/09/17 08:50:22;;;;;;;11.93;10.80;;;;;;;26.35;40.32;99990.94;6192715;23;20031;-82
2022/09/17 08:52:58;;;;;;;9.45;8.85;;;;;;;26.33;39.94;100030.59;6222776;23;20031;-82
2022/09/17 08:55:35;;;;;;;9.85;8.95;;;;;;;25.94;40.25;100003.38;6238538;23;20012;-83
2022/09/17 08:58:27;;;;;;;10.48;9.45;;;;;;;25.15;40.94;99924.72;6224354;23;20100;-83
2022/09/17 09:01:12;;;;;;;10.15;9.15;;;;;;;25.62;40.66;100028.84;6215615;23;20027;-84
2022/09/17 09:04:04;;;;;;;9.70;8.82;;;;;;;25.72;41.06;100015.84;6213225;23;20510;-84
2022/09/17 09:06:41;;;;;;;11.75;10.75;;;;;;;25.72;40.86;99999.50;6213831;23;20132;-83
2022/09/17 09:09:18;;;;;;;10.13;9.40;;;;;;;25.98;40.80;99995.66;6213822;23;20021;-83
2022/09/17 09:11:48;;;;;;;10.52;9.68;;;;;;;26.38;39.84;100024.47;6214573;23;20031;-83
2022/09/17 09:14:44;;;;;;;12.57;9.95;;;;;;;26.01;39.67;99902.44;6215180;23;20027;-83
2022/09/17 09:17:12;;;;;;;9.23;8.68;;;;;;;26.51;38.87;99982.03;6216210;23;20021;-88
2022/09/17 09:19:44;;;;;;;10.35;9.40;;;;;;;26.49;38.34;99944.38;6219773;23;20037;-83
2022/09/17 09:22:25;;;;;;;10.95;2.00;;;;;;;27.31;37.55;100036.31;6215361;23;20031;-83
2022/09/17 09:25:01;;;;;;;4.43;4.15;;;;;;;26.90;37.72;99982.16;6216420;23;20398;-82
2022/09/17 09:27:36;;;;;;;4.82;2.05;;;;;;;27.34;37.98;100006.81;6217115;23;20033;-83
2022/09/17 09:30:09;;;;;;;4.22;2.35;;;;;;;27.72;37.30;100004.38;6217531;23;20020;-84
2022/09/17 09:32:56;;;;;;;6.60;2.20;;;;;;;27.99;37.08;100031.44;6217014;23;20090;-85
2022/09/17 09:35:32;;;;;;;9.25;8.65;;;;;;;27.87;36.15;100014.66;6215616;23;20088;-82
2022/09/17 09:38:08;;;;;;;11.20;10.45;;;;;;;28.32;35.89;100032.19;6215210;23;20017;-83
2022/09/17 09:40:57;;;;;;;9.38;8.68;;;;;;;28.55;35.53;100035.44;6216857;23;20020;-82
2022/09/17 09:43:44;;;;;;;4.18;2.30;;;;;;;28.60;34.92;100013.25;6214081;23;20024;-84
2022/09/17 09:47:01;;;;;;;5.78;2.45;;;;;;;28.97;34.85;100030.72;6215956;23;20025;-83
2022/09/17 09:50:05;;;;;;;2.53;1.70;;;;;;;28.88;34.02;100041.84;6217273;23;20083;-84
2022/09/17 09:53:04;;;;;;;7.43;2.33;;;;;;;28.82;33.93;100034.88;6217169;23;20017;-83
2022/09/17 09:55:37;;;;;;;;;;;;;;;28.60;34.22;100030.47;6166785;23;20024;-82
2022/09/17 09:58:34;;;;;;;9.43;8.82;;;;;;;28.97;34.06;100032.78;6216831;23;19922;-84
2022/09/17 10:01:01;;;;;;;10.32;9.38;;;;;;;29.16;34.00;100009.28;6207944;23;20371;-84
2022/09/17 10:03:31;;;;;;;9.95;9.25;;;;;;;29.91;34.52;100005.00;6216662;23;20020;-83
2022/09/17 10:06:00;;;;;;;10.18;9.40;;;;;;;30.27;33.09;100025.63;6217236;23;20016;-82
2022/09/17 10:08:30;;;;;;;12.48;10.93;;;;;;;30.50;33.25;100018.41;6215322;23;20021;-82
2022/09/17 10:11:02;;;;;;;13.48;12.48;;;;;;;30.27;32.82;99936.34;6216580;23;20473;-82
2022/09/17 10:13:31;;;;;;;11.02;10.23;;;;;;;31.02;32.06;100021.03;6217223;23;20027;-83
2022/09/17 10:16:16;;;;;;;11.00;10.40;;;;;;;30.78;32.02;100026.69;6215839;23;20017;-84
2022/09/17 10:18:47;;;;;;;10.35;9.73;;;;;;;30.42;32.23;100012.69;6216814;23;20101;-83
2022/09/17 10:21:47;;;;;;;11.15;10.13;;;;;;;30.67;32.40;100005.81;6215440;23;20347;-83
2022/09/17 10:24:30;;;;;;;10.30;9.60;;;;;;;30.88;32.17;99993.22;6210033;23;20021;-83
2022/09/17 10:27:04;;;;;;;10.73;9.95;;;;;;;31.02;31.88;99980.66;6215219;23;20016;-83
2022/09/17 10:29:32;;;;;;;5.60;2.35;;;;;;;31.05;31.31;99980.59;6215641;23;20367;-84
2022/09/17 10:32:00;;;;;;;8.52;8.02;;;;;;;31.08;32.17;99982.63;6216949;23;20042;-83
2022/09/17 10:34:29;;;;;;;10.23;9.63;;;;;;;31.07;30.90;100006.13;6216806;23;20032;-83
2022/09/17 10:36:57;;;;;;;11.18;10.38;;;;;;;31.34;31.32;100003.25;6215810;23;20099;-83
2022/09/17 10:39:47;;;;;;;14.90;8.40;;;;;;;31.15;30.60;99996.13;6216528;23;20024;-84
2022/09/17 10:42:16;;;;;;;10.50;9.70;;;;;;;31.13;31.15;99987.06;6215225;23;20399;-83
2022/09/17 10:44:54;;;;;;;2.55;2.35;;;;;;;31.00;30.95;99960.09;6215098;23;20027;-83
2022/09/17 10:47:20;;;;;;;10.75;9.73;;;;;;;31.24;31.09;100005.03;6215041;23;20020;-83
2022/09/17 10:50:00;;;;;;;9.98;9.07;;;;;;;31.30;30.93;99985.16;6214942;23;20032;-83
2022/09/17 10:52:33;;;;;;;5.07;4.68;;;;;;;31.02;30.23;99969.13;6216839;23;20441;-84
2022/09/17 10:55:33;;;;;;;9.07;8.48;;;;;;;30.59;30.83;99986.97;6216481;23;20451;-83
2022/09/17 10:58:06;;;;;;;10.93;10.13;;;;;;;30.67;30.97;99985.66;6215180;23;20024;-84
2022/09/17 11:00:33;;;;;;;10.35;9.75;;;;;;;31.03;31.68;99994.63;6216339;23;20078;-84
2022/09/17 11:03:24;;;;;;;9.35;8.55;;;;;;;30.74;30.49;99987.63;6214835;23;20029;-83
2022/09/17 11:06:14;;;;;;;9.95;8.73;;;;;;;30.68;31.13;99990.16;6214859;23;20035;-83
2022/09/17 11:09:31;;;;;;;9.20;8.25;;;;;;;30.93;31.75;99986.94;6216719;23;20042;-83
2022/09/17 11:12:04;;;;;;;11.60;10.75;;;;;;;31.21;31.03;99993.53;6176693;23;20384;-84
2022/09/17 11:14:40;;;;;;;10.95;10.25;;;;;;;31.54;30.30;99992.63;6216459;23;20027;-83
2022/09/17 11:17:23;;;;;;;11.02;10.43;;;;;;;31.12;30.27;99985.44;6216417;23;20013;-83
2022/09/17 11:20:02;;;;;;;11.45;10.65;;;;;;;30.79;30.52;99976.44;6214931;23;20024;-84
2022/09/17 11:23:26;;;;;;;12.50;11.70;;;;;;;31.04;31.34;99986.78;6216941;23;20020;-85
2022/09/17 11:26:07;;;;;;;10.60;10.00;;;;;;;31.38;30.57;99970.25;6124716;23;20025;-83
2022/09/17 11:29:13;;;;;;;10.68;9.95;;;;;;;31.32;30.14;99966.22;6124484;23;20022;-83
2022/09/17 11:31:56;;;;;;;12.18;11.13;;;;;;;31.79;30.76;99953.84;6213495;23;20027;-84
2022/09/17 11:34:26;;;;;;;10.90;10.30;;;;;;;32.30;30.55;99975.56;6216621;23;20368;-84
2022/09/17 11:37:21;;;;;;;4.18;1.80;;;;;;;31.96;29.95;99946.13;6216584;23;20020;-85
2022/09/17 11:39:51;;;;;;;3.53;2.20;;;;;;;32.17;29.80;99957.28;6216383;23;20025;-84
2022/09/17 11:42:44;;;;;;;10.88;10.27;;;;;;;32.38;29.20;99944.47;6234142;23;20020;-83
2022/09/17 11:45:24;;;;;;;11.65;10.85;;;;;;;32.78;29.04;99927.91;6246336;23;20582;-84
2022/09/17 11:48:00;;;;;;;11.57;10.98;;;;;;;33.57;28.46;99928.91;6220463;23;20020;-83